Terminal Aerodrome Forecast
Issued by NWS Mt. Holly, NJ

Home | Current Version | Previous Version | Text Only | Print | Product List | Glossary On
Versions: 1 2 3 4 5 6 7 8 9 10 11 12 13
877
FTUS41 KPHI 252141 AAA
TAFABE
TAF AMD
KABE 252141Z 2522/2618 VRB10G30KT 5SM -TSRA BR SCT025 BKN050CB
      TEMPO 2522/2524 2SM +TSRA BR BKN025CB OVC040
     FM260000 26005KT P6SM SCT150
     FM260800 VRB02KT 5SM BR SCT100
     FM261500 29007KT P6SM SCT050=

USA.gov is the U.S. government's official web portal to all federal, state and local government web resources and services.